Welcome to the New NWS' Forecast!
Most changes are behind the scenes, but click here for differences you might notice.

Terminal Aerodrome Forecast (TAF)

Issued by National Weather Service (NWS)

                            
555 
FTUS42 KMFL 150543
TAFMIA
TAF
KMIA 150543Z 1506/1612 VRB04KT P6SM VCSH FEW040 SCT250
     FM151400 12010KT P6SM FEW030 SCT250
     FM151800 12013KT P6SM SCT030 BKN050
     FM160100 10006KT P6SM FEW040 SCT250=